sensor_id;sensor_type;location;lat;lon;timestamp;P1;durP1;ratioP1;P2;durP2;ratioP2
85375;SDS011;75780;43.986;22.860;2024-02-16T00:00:07;17.13;;;7.28;;
85375;SDS011;75780;43.986;22.860;2024-02-16T00:02:36;17.13;;;7.25;;
85375;SDS011;75780;43.986;22.860;2024-02-16T00:05:02;16.48;;;7.88;;
85375;SDS011;75780;43.986;22.860;2024-02-16T00:07:28;15.95;;;7.90;;
85375;SDS011;75780;43.986;22.860;2024-02-16T00:09:54;17.02;;;8.40;;
85375;SDS011;75780;43.986;22.860;2024-02-16T00:12:19;19.42;;;8.23;;
85375;SDS011;75780;43.986;22.860;2024-02-16T00:14:45;19.50;;;10.02;;
85375;SDS011;75780;43.986;22.860;2024-02-16T00:17:11;19.50;;;8.80;;
85375;SDS011;75780;43.986;22.860;2024-02-16T00:19:36;20.67;;;9.15;;
85375;SDS011;75780;43.986;22.860;2024-02-16T00:22:02;20.00;;;8.50;;
85375;SDS011;75780;43.986;22.860;2024-02-16T00:24:27;17.05;;;8.00;;
85375;SDS011;75780;43.986;22.860;2024-02-16T00:26:53;22.75;;;10.32;;
85375;SDS011;75780;43.986;22.860;2024-02-16T00:29:18;21.23;;;9.30;;
85375;SDS011;75780;43.986;22.860;2024-02-16T00:31:47;17.88;;;7.72;;
85375;SDS011;75780;43.986;22.860;2024-02-16T00:34:12;17.33;;;8.73;;
85375;SDS011;75780;43.986;22.860;2024-02-16T00:36:38;24.08;;;9.80;;
85375;SDS011;75780;43.986;22.860;2024-02-16T00:39:03;15.82;;;7.40;;
85375;SDS011;75780;43.986;22.860;2024-02-16T00:41:29;12.68;;;7.82;;
85375;SDS011;75780;43.986;22.860;2024-02-16T00:43:54;17.35;;;7.53;;
85375;SDS011;75780;43.986;22.860;2024-02-16T00:46:22;14.95;;;7.40;;
85375;SDS011;75780;43.986;22.860;2024-02-16T00:48:51;17.30;;;7.63;;
85375;SDS011;75780;43.986;22.860;2024-02-16T00:51:17;18.42;;;6.75;;
85375;SDS011;75780;43.986;22.860;2024-02-16T00:53:43;17.52;;;7.50;;
85375;SDS011;75780;43.986;22.860;2024-02-16T00:56:08;17.08;;;7.28;;
85375;SDS011;75780;43.986;22.860;2024-02-16T00:58:34;14.98;;;7.85;;
85375;SDS011;75780;43.986;22.860;2024-02-16T01:01:00;20.13;;;8.00;;
85375;SDS011;75780;43.986;22.860;2024-02-16T01:03:25;16.63;;;7.82;;
85375;SDS011;75780;43.986;22.860;2024-02-16T01:05:51;18.40;;;7.95;;
85375;SDS011;75780;43.986;22.860;2024-02-16T01:08:18;11.48;;;6.57;;
85375;SDS011;75780;43.986;22.860;2024-02-16T01:10:43;18.88;;;9.10;;
85375;SDS011;75780;43.986;22.860;2024-02-16T01:13:09;15.32;;;7.65;;
85375;SDS011;75780;43.986;22.860;2024-02-16T01:15:35;11.18;;;5.72;;
85375;SDS011;75780;43.986;22.860;2024-02-16T01:18:02;13.73;;;6.63;;
85375;SDS011;75780;43.986;22.860;2024-02-16T01:20:28;14.85;;;7.03;;
85375;SDS011;75780;43.986;22.860;2024-02-16T01:22:56;14.30;;;7.28;;
85375;SDS011;75780;43.986;22.860;2024-02-16T01:25:21;13.43;;;6.65;;
85375;SDS011;75780;43.986;22.860;2024-02-16T01:27:47;18.35;;;7.63;;
85375;SDS011;75780;43.986;22.860;2024-02-16T01:30:12;16.75;;;7.82;;
85375;SDS011;75780;43.986;22.860;2024-02-16T01:32:39;10.20;;;6.18;;
85375;SDS011;75780;43.986;22.860;2024-02-16T01:35:05;14.27;;;5.72;;
85375;SDS011;75780;43.986;22.860;2024-02-16T01:37:31;13.13;;;5.88;;
85375;SDS011;75780;43.986;22.860;2024-02-16T01:39:57;15.13;;;8.13;;
85375;SDS011;75780;43.986;22.860;2024-02-16T01:42:22;16.40;;;7.90;;
85375;SDS011;75780;43.986;22.860;2024-02-16T01:44:48;13.85;;;7.47;;
85375;SDS011;75780;43.986;22.860;2024-02-16T01:47:13;22.77;;;8.77;;
85375;SDS011;75780;43.986;22.860;2024-02-16T01:49:39;13.95;;;7.45;;
85375;SDS011;75780;43.986;22.860;2024-02-16T01:52:05;17.80;;;6.85;;
85375;SDS011;75780;43.986;22.860;2024-02-16T01:54:31;17.40;;;7.65;;
85375;SDS011;75780;43.986;22.860;2024-02-16T01:56:56;17.42;;;7.05;;
85375;SDS011;75780;43.986;22.860;2024-02-16T01:59:22;16.00;;;7.97;;
85375;SDS011;75780;43.986;22.860;2024-02-16T02:01:48;16.55;;;7.68;;
85375;SDS011;75780;43.986;22.860;2024-02-16T02:04:13;12.10;;;6.10;;
85375;SDS011;75780;43.986;22.860;2024-02-16T02:06:39;14.45;;;7.60;;
85375;SDS011;75780;43.986;22.860;2024-02-16T02:09:04;15.90;;;7.53;;
85375;SDS011;75780;43.986;22.860;2024-02-16T02:11:30;12.77;;;6.43;;
85375;SDS011;75780;43.986;22.860;2024-02-16T02:13:55;13.43;;;5.80;;
85375;SDS011;75780;43.986;22.860;2024-02-16T02:16:21;17.23;;;6.82;;
85375;SDS011;75780;43.986;22.860;2024-02-16T02:18:47;16.45;;;7.65;;
85375;SDS011;75780;43.986;22.860;2024-02-16T02:21:13;12.75;;;6.25;;
85375;SDS011;75780;43.986;22.860;2024-02-16T02:23:39;14.38;;;5.60;;
85375;SDS011;75780;43.986;22.860;2024-02-16T02:26:06;13.90;;;6.35;;
85375;SDS011;75780;43.986;22.860;2024-02-16T02:28:32;9.57;;;5.53;;
85375;SDS011;75780;43.986;22.860;2024-02-16T02:30:59;15.70;;;7.05;;
85375;SDS011;75780;43.986;22.860;2024-02-16T02:33:24;13.50;;;5.90;;
85375;SDS011;75780;43.986;22.860;2024-02-16T02:35:50;11.93;;;7.03;;
85375;SDS011;75780;43.986;22.860;2024-02-16T02:38:18;14.32;;;6.15;;
85375;SDS011;75780;43.986;22.860;2024-02-16T02:40:44;13.93;;;5.70;;
85375;SDS011;75780;43.986;22.860;2024-02-16T02:43:10;10.68;;;6.10;;
85375;SDS011;75780;43.986;22.860;2024-02-16T02:45:35;18.15;;;7.63;;
85375;SDS011;75780;43.986;22.860;2024-02-16T02:48:00;17.85;;;6.78;;
85375;SDS011;75780;43.986;22.860;2024-02-16T02:50:26;19.45;;;6.20;;
85375;SDS011;75780;43.986;22.860;2024-02-16T02:52:52;15.13;;;6.20;;
85375;SDS011;75780;43.986;22.860;2024-02-16T02:55:17;17.00;;;6.20;;
85375;SDS011;75780;43.986;22.860;2024-02-16T02:57:42;18.58;;;8.15;;
85375;SDS011;75780;43.986;22.860;2024-02-16T03:00:08;26.30;;;14.40;;
85375;SDS011;75780;43.986;22.860;2024-02-16T03:05:04;31.98;;;14.63;;
85375;SDS011;75780;43.986;22.860;2024-02-16T03:07:33;27.65;;;12.80;;
85375;SDS011;75780;43.986;22.860;2024-02-16T03:09:59;20.10;;;8.38;;
85375;SDS011;75780;43.986;22.860;2024-02-16T03:12:24;13.98;;;7.30;;
85375;SDS011;75780;43.986;22.860;2024-02-16T03:14:50;15.70;;;7.68;;
85375;SDS011;75780;43.986;22.860;2024-02-16T03:17:15;16.35;;;8.35;;
85375;SDS011;75780;43.986;22.860;2024-02-16T03:19:41;20.40;;;9.25;;
85375;SDS011;75780;43.986;22.860;2024-02-16T03:22:06;16.38;;;7.97;;
85375;SDS011;75780;43.986;22.860;2024-02-16T03:24:32;15.23;;;8.15;;
85375;SDS011;75780;43.986;22.860;2024-02-16T03:26:58;18.77;;;8.48;;
85375;SDS011;75780;43.986;22.860;2024-02-16T03:29:24;17.55;;;7.93;;
85375;SDS011;75780;43.986;22.860;2024-02-16T03:31:50;15.75;;;7.57;;
85375;SDS011;75780;43.986;22.860;2024-02-16T03:34:16;13.68;;;7.70;;
85375;SDS011;75780;43.986;22.860;2024-02-16T03:36:41;14.15;;;7.65;;
85375;SDS011;75780;43.986;22.860;2024-02-16T03:39:07;14.50;;;8.48;;
85375;SDS011;75780;43.986;22.860;2024-02-16T03:41:34;18.45;;;7.95;;
85375;SDS011;75780;43.986;22.860;2024-02-16T03:43:59;20.70;;;7.78;;
85375;SDS011;75780;43.986;22.860;2024-02-16T03:46:25;15.95;;;7.75;;
85375;SDS011;75780;43.986;22.860;2024-02-16T03:48:51;20.67;;;9.45;;
85375;SDS011;75780;43.986;22.860;2024-02-16T03:51:17;24.10;;;11.68;;
85375;SDS011;75780;43.986;22.860;2024-02-16T03:53:42;23.40;;;10.05;;
85375;SDS011;75780;43.986;22.860;2024-02-16T03:56:10;27.30;;;10.80;;
85375;SDS011;75780;43.986;22.860;2024-02-16T03:58:37;33.85;;;15.43;;
85375;SDS011;75780;43.986;22.860;2024-02-16T04:01:03;30.38;;;14.75;;
85375;SDS011;75780;43.986;22.860;2024-02-16T04:03:30;38.30;;;15.02;;
85375;SDS011;75780;43.986;22.860;2024-02-16T04:05:55;27.90;;;11.27;;
85375;SDS011;75780;43.986;22.860;2024-02-16T04:08:21;16.70;;;8.23;;
85375;SDS011;75780;43.986;22.860;2024-02-16T04:10:46;16.05;;;7.28;;
85375;SDS011;75780;43.986;22.860;2024-02-16T04:13:12;19.05;;;8.50;;
85375;SDS011;75780;43.986;22.860;2024-02-16T04:15:37;19.35;;;8.05;;
85375;SDS011;75780;43.986;22.860;2024-02-16T04:18:03;13.80;;;6.50;;
85375;SDS011;75780;43.986;22.860;2024-02-16T04:20:29;23.40;;;8.13;;
85375;SDS011;75780;43.986;22.860;2024-02-16T04:22:55;16.10;;;7.40;;
85375;SDS011;75780;43.986;22.860;2024-02-16T04:25:20;15.60;;;7.45;;
85375;SDS011;75780;43.986;22.860;2024-02-16T04:27:46;19.73;;;7.38;;
85375;SDS011;75780;43.986;22.860;2024-02-16T04:30:11;16.02;;;6.63;;
85375;SDS011;75780;43.986;22.860;2024-02-16T04:32:37;14.35;;;7.90;;
85375;SDS011;75780;43.986;22.860;2024-02-16T04:35:02;25.30;;;8.27;;
85375;SDS011;75780;43.986;22.860;2024-02-16T04:37:31;16.77;;;8.20;;
85375;SDS011;75780;43.986;22.860;2024-02-16T04:39:57;15.30;;;7.75;;
85375;SDS011;75780;43.986;22.860;2024-02-16T04:42:22;16.33;;;7.28;;
85375;SDS011;75780;43.986;22.860;2024-02-16T04:44:48;18.90;;;7.22;;
85375;SDS011;75780;43.986;22.860;2024-02-16T04:47:13;19.13;;;7.50;;
85375;SDS011;75780;43.986;22.860;2024-02-16T04:49:39;21.30;;;8.00;;
85375;SDS011;75780;43.986;22.860;2024-02-16T04:52:04;16.17;;;7.63;;
85375;SDS011;75780;43.986;22.860;2024-02-16T04:54:30;16.02;;;7.07;;
85375;SDS011;75780;43.986;22.860;2024-02-16T04:56:55;20.70;;;8.15;;
85375;SDS011;75780;43.986;22.860;2024-02-16T04:59:21;20.15;;;7.65;;
85375;SDS011;75780;43.986;22.860;2024-02-16T05:01:46;10.18;;;5.55;;
85375;SDS011;75780;43.986;22.860;2024-02-16T05:04:12;17.38;;;6.00;;
85375;SDS011;75780;43.986;22.860;2024-02-16T05:06:41;24.75;;;6.72;;
85375;SDS011;75780;43.986;22.860;2024-02-16T05:09:07;18.02;;;7.00;;
85375;SDS011;75780;43.986;22.860;2024-02-16T05:11:32;17.42;;;6.82;;
85375;SDS011;75780;43.986;22.860;2024-02-16T05:13:58;14.85;;;6.97;;
85375;SDS011;75780;43.986;22.860;2024-02-16T05:16:24;22.45;;;6.65;;
85375;SDS011;75780;43.986;22.860;2024-02-16T05:18:50;19.08;;;8.13;;
85375;SDS011;75780;43.986;22.860;2024-02-16T05:21:16;20.23;;;7.68;;
85375;SDS011;75780;43.986;22.860;2024-02-16T05:23:41;31.05;;;8.70;;
85375;SDS011;75780;43.986;22.860;2024-02-16T05:26:07;17.98;;;8.38;;
85375;SDS011;75780;43.986;22.860;2024-02-16T05:28:32;19.48;;;7.75;;
85375;SDS011;75780;43.986;22.860;2024-02-16T05:30:58;23.02;;;9.13;;
85375;SDS011;75780;43.986;22.860;2024-02-16T05:33:37;16.48;;;8.15;;
85375;SDS011;75780;43.986;22.860;2024-02-16T05:36:03;16.55;;;7.97;;
85375;SDS011;75780;43.986;22.860;2024-02-16T05:38:28;17.10;;;7.50;;
85375;SDS011;75780;43.986;22.860;2024-02-16T05:43:25;14.95;;;6.93;;
85375;SDS011;75780;43.986;22.860;2024-02-16T05:45:51;24.90;;;7.97;;
85375;SDS011;75780;43.986;22.860;2024-02-16T05:48:16;35.97;;;9.48;;
85375;SDS011;75780;43.986;22.860;2024-02-16T05:50:42;28.98;;;12.48;;
85375;SDS011;75780;43.986;22.860;2024-02-16T05:53:08;27.98;;;12.60;;
85375;SDS011;75780;43.986;22.860;2024-02-16T05:55:35;27.05;;;12.05;;
85375;SDS011;75780;43.986;22.860;2024-02-16T05:58:01;24.83;;;11.70;;
85375;SDS011;75780;43.986;22.860;2024-02-16T06:00:27;16.38;;;8.38;;
85375;SDS011;75780;43.986;22.860;2024-02-16T06:02:52;22.48;;;8.55;;
85375;SDS011;75780;43.986;22.860;2024-02-16T06:05:18;13.18;;;6.05;;
85375;SDS011;75780;43.986;22.860;2024-02-16T06:07:45;30.63;;;8.23;;
85375;SDS011;75780;43.986;22.860;2024-02-16T06:10:10;30.63;;;7.95;;
85375;SDS011;75780;43.986;22.860;2024-02-16T06:12:37;24.92;;;8.73;;
85375;SDS011;75780;43.986;22.860;2024-02-16T06:15:03;21.52;;;7.43;;
85375;SDS011;75780;43.986;22.860;2024-02-16T06:17:30;23.30;;;6.72;;
85375;SDS011;75780;43.986;22.860;2024-02-16T06:19:55;14.70;;;6.50;;
85375;SDS011;75780;43.986;22.860;2024-02-16T06:22:21;15.10;;;6.57;;
85375;SDS011;75780;43.986;22.860;2024-02-16T06:24:46;16.13;;;6.35;;
85375;SDS011;75780;43.986;22.860;2024-02-16T06:27:11;19.98;;;7.63;;
85375;SDS011;75780;43.986;22.860;2024-02-16T06:29:37;23.63;;;8.50;;
85375;SDS011;75780;43.986;22.860;2024-02-16T06:32:02;23.42;;;9.20;;
85375;SDS011;75780;43.986;22.860;2024-02-16T06:34:29;23.55;;;11.15;;
85375;SDS011;75780;43.986;22.860;2024-02-16T06:36:55;26.33;;;10.73;;
85375;SDS011;75780;43.986;22.860;2024-02-16T06:39:21;27.65;;;11.45;;
85375;SDS011;75780;43.986;22.860;2024-02-16T06:41:47;37.20;;;15.50;;
85375;SDS011;75780;43.986;22.860;2024-02-16T06:44:12;24.88;;;12.98;;
85375;SDS011;75780;43.986;22.860;2024-02-16T06:46:38;50.45;;;18.45;;
85375;SDS011;75780;43.986;22.860;2024-02-16T06:49:04;71.35;;;23.42;;
85375;SDS011;75780;43.986;22.860;2024-02-16T06:51:29;185.80;;;54.42;;
85375;SDS011;75780;43.986;22.860;2024-02-16T06:53:55;45.78;;;19.05;;
85375;SDS011;75780;43.986;22.860;2024-02-16T06:56:20;49.92;;;22.15;;
85375;SDS011;75780;43.986;22.860;2024-02-16T06:58:46;51.63;;;20.42;;
85375;SDS011;75780;43.986;22.860;2024-02-16T07:01:15;70.93;;;33.80;;
85375;SDS011;75780;43.986;22.860;2024-02-16T07:03:43;42.35;;;19.30;;
85375;SDS011;75780;43.986;22.860;2024-02-16T07:06:08;62.15;;;23.90;;
85375;SDS011;75780;43.986;22.860;2024-02-16T07:08:41;47.90;;;21.52;;
85375;SDS011;75780;43.986;22.860;2024-02-16T07:11:08;52.28;;;20.92;;
85375;SDS011;75780;43.986;22.860;2024-02-16T07:16:02;97.13;;;32.08;;
85375;SDS011;75780;43.986;22.860;2024-02-16T07:18:29;65.40;;;27.70;;
85375;SDS011;75780;43.986;22.860;2024-02-16T07:20:55;98.07;;;42.67;;
85375;SDS011;75780;43.986;22.860;2024-02-16T07:23:21;86.50;;;33.28;;
85375;SDS011;75780;43.986;22.860;2024-02-16T07:25:47;77.72;;;31.35;;
85375;SDS011;75780;43.986;22.860;2024-02-16T07:28:14;82.55;;;31.23;;
85375;SDS011;75780;43.986;22.860;2024-02-16T07:30:40;69.53;;;32.22;;
85375;SDS011;75780;43.986;22.860;2024-02-16T07:33:05;63.92;;;26.85;;
85375;SDS011;75780;43.986;22.860;2024-02-16T07:35:32;70.38;;;28.70;;
85375;SDS011;75780;43.986;22.860;2024-02-16T07:38:01;58.25;;;23.30;;
85375;SDS011;75780;43.986;22.860;2024-02-16T07:40:28;55.35;;;23.10;;
85375;SDS011;75780;43.986;22.860;2024-02-16T07:42:53;49.53;;;24.55;;
85375;SDS011;75780;43.986;22.860;2024-02-16T07:45:20;63.08;;;24.98;;
85375;SDS011;75780;43.986;22.860;2024-02-16T07:47:46;58.55;;;25.25;;
85375;SDS011;75780;43.986;22.860;2024-02-16T07:50:12;52.80;;;21.13;;
85375;SDS011;75780;43.986;22.860;2024-02-16T07:52:38;50.50;;;23.17;;
85375;SDS011;75780;43.986;22.860;2024-02-16T07:55:04;50.10;;;21.17;;
85375;SDS011;75780;43.986;22.860;2024-02-16T07:57:34;54.15;;;22.23;;
85375;SDS011;75780;43.986;22.860;2024-02-16T08:00:00;43.33;;;20.42;;
85375;SDS011;75780;43.986;22.860;2024-02-16T08:02:25;69.38;;;31.92;;
85375;SDS011;75780;43.986;22.860;2024-02-16T08:04:51;44.90;;;20.35;;
85375;SDS011;75780;43.986;22.860;2024-02-16T08:07:17;39.10;;;17.38;;
85375;SDS011;75780;43.986;22.860;2024-02-16T08:09:46;40.95;;;19.58;;
85375;SDS011;75780;43.986;22.860;2024-02-16T08:12:12;45.20;;;20.27;;
85375;SDS011;75780;43.986;22.860;2024-02-16T08:14:38;42.13;;;20.95;;
85375;SDS011;75780;43.986;22.860;2024-02-16T08:17:07;48.05;;;22.65;;
85375;SDS011;75780;43.986;22.860;2024-02-16T08:19:34;46.30;;;19.50;;
85375;SDS011;75780;43.986;22.860;2024-02-16T08:22:05;54.05;;;21.20;;
85375;SDS011;75780;43.986;22.860;2024-02-16T08:24:31;37.10;;;17.00;;
85375;SDS011;75780;43.986;22.860;2024-02-16T08:26:58;35.72;;;17.08;;
85375;SDS011;75780;43.986;22.860;2024-02-16T08:29:23;36.55;;;16.90;;
85375;SDS011;75780;43.986;22.860;2024-02-16T08:31:50;38.70;;;18.92;;
85375;SDS011;75780;43.986;22.860;2024-02-16T08:34:16;35.45;;;17.92;;
85375;SDS011;75780;43.986;22.860;2024-02-16T08:36:45;31.73;;;16.27;;
85375;SDS011;75780;43.986;22.860;2024-02-16T08:39:15;34.47;;;17.45;;
85375;SDS011;75780;43.986;22.860;2024-02-16T08:41:41;34.72;;;17.08;;
85375;SDS011;75780;43.986;22.860;2024-02-16T08:44:09;33.10;;;16.92;;
85375;SDS011;75780;43.986;22.860;2024-02-16T08:46:35;31.00;;;17.33;;
85375;SDS011;75780;43.986;22.860;2024-02-16T08:49:21;33.67;;;15.70;;
85375;SDS011;75780;43.986;22.860;2024-02-16T08:51:47;29.05;;;16.30;;
85375;SDS011;75780;43.986;22.860;2024-02-16T08:54:12;29.02;;;14.82;;
85375;SDS011;75780;43.986;22.860;2024-02-16T08:56:39;29.58;;;12.27;;
85375;SDS011;75780;43.986;22.860;2024-02-16T08:59:05;25.63;;;13.60;;
85375;SDS011;75780;43.986;22.860;2024-02-16T09:03:57;29.63;;;13.75;;
85375;SDS011;75780;43.986;22.860;2024-02-16T09:06:22;27.25;;;14.13;;
85375;SDS011;75780;43.986;22.860;2024-02-16T09:08:48;31.08;;;14.10;;
85375;SDS011;75780;43.986;22.860;2024-02-16T09:11:13;27.10;;;14.00;;
85375;SDS011;75780;43.986;22.860;2024-02-16T09:13:39;24.58;;;13.38;;
85375;SDS011;75780;43.986;22.860;2024-02-16T09:16:06;27.90;;;15.05;;
85375;SDS011;75780;43.986;22.860;2024-02-16T09:18:32;26.75;;;13.68;;
85375;SDS011;75780;43.986;22.860;2024-02-16T09:20:58;29.92;;;15.63;;
85375;SDS011;75780;43.986;22.860;2024-02-16T09:23:23;32.35;;;14.88;;
85375;SDS011;75780;43.986;22.860;2024-02-16T09:25:49;28.35;;;12.73;;
85375;SDS011;75780;43.986;22.860;2024-02-16T09:28:15;22.50;;;12.40;;
85375;SDS011;75780;43.986;22.860;2024-02-16T09:30:44;26.38;;;13.18;;
85375;SDS011;75780;43.986;22.860;2024-02-16T09:33:09;26.83;;;12.88;;
85375;SDS011;75780;43.986;22.860;2024-02-16T09:35:35;22.00;;;10.38;;
85375;SDS011;75780;43.986;22.860;2024-02-16T09:38:00;28.70;;;13.45;;
85375;SDS011;75780;43.986;22.860;2024-02-16T09:40:26;27.00;;;14.95;;
85375;SDS011;75780;43.986;22.860;2024-02-16T09:42:51;27.15;;;12.90;;
85375;SDS011;75780;43.986;22.860;2024-02-16T09:45:17;24.58;;;13.35;;
85375;SDS011;75780;43.986;22.860;2024-02-16T09:47:43;34.38;;;15.18;;
85375;SDS011;75780;43.986;22.860;2024-02-16T09:50:11;15.88;;;9.57;;
85375;SDS011;75780;43.986;22.860;2024-02-16T09:52:38;19.67;;;10.70;;
85375;SDS011;75780;43.986;22.860;2024-02-16T09:55:03;18.13;;;10.63;;
85375;SDS011;75780;43.986;22.860;2024-02-16T09:57:32;26.63;;;12.68;;
85375;SDS011;75780;43.986;22.860;2024-02-16T09:59:58;16.67;;;10.25;;
85375;SDS011;75780;43.986;22.860;2024-02-16T10:02:24;20.00;;;9.30;;
85375;SDS011;75780;43.986;22.860;2024-02-16T10:04:50;18.05;;;10.45;;
85375;SDS011;75780;43.986;22.860;2024-02-16T10:07:19;19.60;;;10.05;;
85375;SDS011;75780;43.986;22.860;2024-02-16T10:09:44;19.15;;;9.63;;
85375;SDS011;75780;43.986;22.860;2024-02-16T10:12:10;18.45;;;9.75;;
85375;SDS011;75780;43.986;22.860;2024-02-16T10:14:35;25.45;;;11.65;;
85375;SDS011;75780;43.986;22.860;2024-02-16T10:17:01;25.35;;;11.10;;
85375;SDS011;75780;43.986;22.860;2024-02-16T10:19:28;16.48;;;9.35;;
85375;SDS011;75780;43.986;22.860;2024-02-16T10:22:06;26.33;;;12.15;;
85375;SDS011;75780;43.986;22.860;2024-02-16T10:24:33;19.23;;;11.65;;
85375;SDS011;75780;43.986;22.860;2024-02-16T10:26:58;21.17;;;10.43;;
85375;SDS011;75780;43.986;22.860;2024-02-16T10:29:24;17.17;;;9.93;;
85375;SDS011;75780;43.986;22.860;2024-02-16T10:34:17;22.58;;;10.55;;
85375;SDS011;75780;43.986;22.860;2024-02-16T10:36:47;17.83;;;9.98;;
85375;SDS011;75780;43.986;22.860;2024-02-16T10:39:14;18.15;;;10.68;;
85375;SDS011;75780;43.986;22.860;2024-02-16T10:41:41;18.70;;;9.73;;
85375;SDS011;75780;43.986;22.860;2024-02-16T10:44:07;21.25;;;10.85;;
85375;SDS011;75780;43.986;22.860;2024-02-16T10:46:33;20.67;;;10.57;;
85375;SDS011;75780;43.986;22.860;2024-02-16T10:48:59;23.85;;;12.38;;
85375;SDS011;75780;43.986;22.860;2024-02-16T10:51:29;16.70;;;10.73;;
85375;SDS011;75780;43.986;22.860;2024-02-16T10:54:13;30.20;;;19.02;;
85375;SDS011;75780;43.986;22.860;2024-02-16T10:56:43;23.67;;;11.95;;
85375;SDS011;75780;43.986;22.860;2024-02-16T10:59:09;22.42;;;12.38;;
85375;SDS011;75780;43.986;22.860;2024-02-16T11:01:39;19.63;;;10.88;;
85375;SDS011;75780;43.986;22.860;2024-02-16T11:04:16;19.75;;;10.38;;
85375;SDS011;75780;43.986;22.860;2024-02-16T11:06:46;16.48;;;8.85;;
85375;SDS011;75780;43.986;22.860;2024-02-16T11:12:04;20.23;;;11.10;;
85375;SDS011;75780;43.986;22.860;2024-02-16T11:14:40;28.58;;;13.32;;
85375;SDS011;75780;43.986;22.860;2024-02-16T11:17:19;18.45;;;8.90;;
85375;SDS011;75780;43.986;22.860;2024-02-16T11:19:47;14.45;;;8.55;;
85375;SDS011;75780;43.986;22.860;2024-02-16T11:22:17;13.15;;;7.88;;
85375;SDS011;75780;43.986;22.860;2024-02-16T11:24:44;16.40;;;10.07;;
85375;SDS011;75780;43.986;22.860;2024-02-16T11:27:11;21.70;;;9.30;;
85375;SDS011;75780;43.986;22.860;2024-02-16T11:29:38;21.38;;;9.50;;
85375;SDS011;75780;43.986;22.860;2024-02-16T11:32:04;12.48;;;7.80;;
85375;SDS011;75780;43.986;22.860;2024-02-16T11:34:31;10.40;;;6.20;;
85375;SDS011;75780;43.986;22.860;2024-02-16T11:36:57;11.63;;;4.70;;
85375;SDS011;75780;43.986;22.860;2024-02-16T11:39:25;7.85;;;4.57;;
85375;SDS011;75780;43.986;22.860;2024-02-16T11:42:01;10.55;;;5.78;;
85375;SDS011;75780;43.986;22.860;2024-02-16T11:44:34;17.35;;;6.85;;
85375;SDS011;75780;43.986;22.860;2024-02-16T11:47:01;8.95;;;6.05;;
85375;SDS011;75780;43.986;22.860;2024-02-16T11:49:31;12.95;;;6.57;;
85375;SDS011;75780;43.986;22.860;2024-02-16T11:51:59;15.18;;;8.02;;
85375;SDS011;75780;43.986;22.860;2024-02-16T11:54:24;12.85;;;7.13;;
85375;SDS011;75780;43.986;22.860;2024-02-16T11:56:50;11.48;;;7.00;;
85375;SDS011;75780;43.986;22.860;2024-02-16T11:59:17;11.60;;;6.40;;
85375;SDS011;75780;43.986;22.860;2024-02-16T12:01:49;13.63;;;8.50;;
85375;SDS011;75780;43.986;22.860;2024-02-16T12:04:26;18.05;;;8.32;;
85375;SDS011;75780;43.986;22.860;2024-02-16T12:06:55;12.48;;;7.00;;
85375;SDS011;75780;43.986;22.860;2024-02-16T12:09:20;17.45;;;9.20;;
85375;SDS011;75780;43.986;22.860;2024-02-16T12:11:48;12.75;;;7.65;;
85375;SDS011;75780;43.986;22.860;2024-02-16T12:14:15;13.52;;;7.15;;
85375;SDS011;75780;43.986;22.860;2024-02-16T12:16:41;15.63;;;7.43;;
85375;SDS011;75780;43.986;22.860;2024-02-16T12:19:07;16.40;;;10.52;;
85375;SDS011;75780;43.986;22.860;2024-02-16T12:21:36;9.15;;;6.25;;
85375;SDS011;75780;43.986;22.860;2024-02-16T12:26:29;8.13;;;5.35;;
85375;SDS011;75780;43.986;22.860;2024-02-16T12:28:54;10.15;;;6.70;;
85375;SDS011;75780;43.986;22.860;2024-02-16T12:31:20;12.40;;;7.00;;
85375;SDS011;75780;43.986;22.860;2024-02-16T12:33:46;11.15;;;7.47;;
85375;SDS011;75780;43.986;22.860;2024-02-16T12:36:11;9.85;;;6.20;;
85375;SDS011;75780;43.986;22.860;2024-02-16T12:38:39;17.98;;;7.13;;
85375;SDS011;75780;43.986;22.860;2024-02-16T12:41:05;9.70;;;6.22;;
85375;SDS011;75780;43.986;22.860;2024-02-16T12:43:31;9.38;;;6.03;;
85375;SDS011;75780;43.986;22.860;2024-02-16T12:45:57;8.75;;;6.18;;
85375;SDS011;75780;43.986;22.860;2024-02-16T12:48:24;10.20;;;5.90;;
85375;SDS011;75780;43.986;22.860;2024-02-16T12:50:50;7.78;;;5.75;;
85375;SDS011;75780;43.986;22.860;2024-02-16T12:53:17;16.92;;;5.93;;
85375;SDS011;75780;43.986;22.860;2024-02-16T12:55:43;7.13;;;5.10;;
85375;SDS011;75780;43.986;22.860;2024-02-16T12:58:09;9.32;;;5.13;;
85375;SDS011;75780;43.986;22.860;2024-02-16T13:00:34;9.73;;;5.13;;
85375;SDS011;75780;43.986;22.860;2024-02-16T13:03:00;5.88;;;4.03;;
85375;SDS011;75780;43.986;22.860;2024-02-16T13:05:25;6.35;;;4.07;;
85375;SDS011;75780;43.986;22.860;2024-02-16T13:07:50;8.75;;;4.88;;
85375;SDS011;75780;43.986;22.860;2024-02-16T13:10:16;6.97;;;4.85;;
85375;SDS011;75780;43.986;22.860;2024-02-16T13:12:42;8.02;;;5.43;;
85375;SDS011;75780;43.986;22.860;2024-02-16T13:15:08;8.23;;;5.35;;
85375;SDS011;75780;43.986;22.860;2024-02-16T13:17:34;10.93;;;5.32;;
85375;SDS011;75780;43.986;22.860;2024-02-16T13:19:59;9.18;;;5.53;;
85375;SDS011;75780;43.986;22.860;2024-02-16T13:22:35;12.40;;;6.03;;
85375;SDS011;75780;43.986;22.860;2024-02-16T13:25:02;8.27;;;5.68;;
85375;SDS011;75780;43.986;22.860;2024-02-16T13:27:29;8.55;;;4.80;;
85375;SDS011;75780;43.986;22.860;2024-02-16T13:29:55;10.43;;;5.97;;
85375;SDS011;75780;43.986;22.860;2024-02-16T13:32:20;8.43;;;4.78;;
85375;SDS011;75780;43.986;22.860;2024-02-16T13:34:46;10.35;;;6.28;;
85375;SDS011;75780;43.986;22.860;2024-02-16T13:37:11;11.15;;;6.10;;
85375;SDS011;75780;43.986;22.860;2024-02-16T13:39:37;9.25;;;5.85;;
85375;SDS011;75780;43.986;22.860;2024-02-16T13:42:03;7.20;;;4.85;;
85375;SDS011;75780;43.986;22.860;2024-02-16T13:44:28;9.20;;;5.63;;
85375;SDS011;75780;43.986;22.860;2024-02-16T13:46:54;12.13;;;6.05;;
85375;SDS011;75780;43.986;22.860;2024-02-16T13:49:19;9.23;;;6.22;;
85375;SDS011;75780;43.986;22.860;2024-02-16T13:51:45;12.00;;;6.40;;
85375;SDS011;75780;43.986;22.860;2024-02-16T13:54:10;9.98;;;6.22;;
85375;SDS011;75780;43.986;22.860;2024-02-16T13:56:36;10.63;;;7.15;;
85375;SDS011;75780;43.986;22.860;2024-02-16T13:59:03;11.40;;;7.07;;
85375;SDS011;75780;43.986;22.860;2024-02-16T14:01:29;11.25;;;6.43;;
85375;SDS011;75780;43.986;22.860;2024-02-16T14:03:55;13.40;;;8.23;;
85375;SDS011;75780;43.986;22.860;2024-02-16T14:06:21;13.05;;;8.05;;
85375;SDS011;75780;43.986;22.860;2024-02-16T14:08:46;15.45;;;8.00;;
85375;SDS011;75780;43.986;22.860;2024-02-16T14:11:14;11.80;;;7.32;;
85375;SDS011;75780;43.986;22.860;2024-02-16T14:13:39;13.05;;;6.85;;
85375;SDS011;75780;43.986;22.860;2024-02-16T14:16:05;9.27;;;6.00;;
85375;SDS011;75780;43.986;22.860;2024-02-16T14:18:31;8.73;;;5.90;;
85375;SDS011;75780;43.986;22.860;2024-02-16T14:20:56;10.88;;;6.50;;
85375;SDS011;75780;43.986;22.860;2024-02-16T14:23:21;10.93;;;5.55;;
85375;SDS011;75780;43.986;22.860;2024-02-16T14:25:47;12.77;;;7.30;;
85375;SDS011;75780;43.986;22.860;2024-02-16T14:28:12;11.63;;;6.55;;
85375;SDS011;75780;43.986;22.860;2024-02-16T14:30:38;9.52;;;6.50;;